createdAt,value
2017-12-05T00:04:28.959Z,8.77
2017-12-05T00:09:12.955Z,9.63
2017-12-05T00:13:57.012Z,12.87
2017-12-05T00:18:41.091Z,7.27
2017-12-05T00:23:25.171Z,10.23
2017-12-05T00:28:09.249Z,8.67
2017-12-05T00:32:53.332Z,6.60
2017-12-05T00:37:37.749Z,9.10
2017-12-05T00:42:21.810Z,7.70
2017-12-05T00:47:06.594Z,8.07
2017-12-05T00:51:50.615Z,7.97
2017-12-05T00:56:34.639Z,12.40
2017-12-05T01:01:18.656Z,9.33
2017-12-05T01:06:02.718Z,11.50
2017-12-05T01:10:46.707Z,12.60
2017-12-05T01:15:30.840Z,12.60
2017-12-05T01:20:14.840Z,10.87
2017-12-05T01:24:58.839Z,10.10
2017-12-05T01:29:43.764Z,13.07
2017-12-05T01:34:27.804Z,12.37
2017-12-05T01:39:12.547Z,12.30
2017-12-05T01:43:57.057Z,15.10
2017-12-05T01:48:41.888Z,15.37
2017-12-05T01:53:26.016Z,16.37
2017-12-05T01:58:10.086Z,12.47
2017-12-05T02:02:54.179Z,12.50
2017-12-05T02:07:38.536Z,10.80
2017-12-05T02:12:22.568Z,10.93
2017-12-05T02:17:06.642Z,15.43
2017-12-05T02:21:58.854Z,9.20
2017-12-05T02:26:44.012Z,10.33
2017-12-05T02:31:28.040Z,9.73
2017-12-05T02:36:12.709Z,10.23
2017-12-05T02:41:12.887Z,9.30
2017-12-05T02:45:56.914Z,6.47
2017-12-05T02:50:40.931Z,8.73
2017-12-05T02:55:25.903Z,7.07
2017-12-05T03:00:10.844Z,9.63
2017-12-05T03:05:01.994Z,5.27
2017-12-05T03:09:46.057Z,5.77
2017-12-05T03:14:30.098Z,6.10
2017-12-05T03:19:14.132Z,4.77
2017-12-05T03:23:58.264Z,5.57
2017-12-05T03:28:42.358Z,6.27
2017-12-05T03:33:26.444Z,4.43
2017-12-05T03:38:10.526Z,5.40
2017-12-05T03:42:54.595Z,4.40
2017-12-05T03:47:38.655Z,4.83
2017-12-05T03:52:22.883Z,4.00
2017-12-05T03:57:06.964Z,4.10
2017-12-05T04:01:52.932Z,4.37
2017-12-05T04:06:36.993Z,4.23
2017-12-05T04:11:21.183Z,3.37
2017-12-05T04:16:05.381Z,3.97
2017-12-05T04:20:50.873Z,3.90
2017-12-05T04:25:34.889Z,4.07
2017-12-05T04:30:18.935Z,5.17
2017-12-05T04:35:03.035Z,2.70
2017-12-05T04:39:47.885Z,3.27
2017-12-05T04:44:35.907Z,2.97
2017-12-05T04:49:25.798Z,4.67
2017-12-05T04:54:09.862Z,3.40
2017-12-05T04:58:54.695Z,3.50
2017-12-05T05:03:41.351Z,3.10
2017-12-05T05:08:25.888Z,2.57
2017-12-05T05:13:10.521Z,2.43
2017-12-05T05:17:55.359Z,3.23
2017-12-05T05:22:41.404Z,3.77
2017-12-05T05:27:25.488Z,3.93
2017-12-05T05:32:10.013Z,4.23
2017-12-05T05:36:58.328Z,3.70
2017-12-05T05:41:50.703Z,4.73
2017-12-05T05:46:45.032Z,4.90
2017-12-05T05:51:31.603Z,4.57
2017-12-05T05:56:17.391Z,5.17
2017-12-05T06:01:02.557Z,4.70
2017-12-05T06:05:52.553Z,6.27
2017-12-05T06:10:36.673Z,6.67
2017-12-05T06:15:20.688Z,6.03
2017-12-05T06:20:05.035Z,6.83
2017-12-05T06:24:49.090Z,9.13
2017-12-05T06:29:33.150Z,7.13
2017-12-05T06:34:18.060Z,10.10
2017-12-05T06:39:02.155Z,9.17
2017-12-05T06:43:46.275Z,7.33
2017-12-05T06:48:30.388Z,8.93
2017-12-05T06:53:14.395Z,8.37
2017-12-05T06:57:59.234Z,9.23
2017-12-05T07:02:43.385Z,7.50
2017-12-05T07:07:27.552Z,11.37
2017-12-05T07:12:11.655Z,10.60
2017-12-05T07:16:55.758Z,8.80
2017-12-05T07:21:39.883Z,13.73
2017-12-05T07:26:23.986Z,9.57
2017-12-05T07:31:08.059Z,12.87
2017-12-05T07:35:52.179Z,14.67
2017-12-05T07:40:36.260Z,12.47
2017-12-05T07:45:20.347Z,12.80
2017-12-05T07:50:04.691Z,15.87
2017-12-05T07:54:48.919Z,13.17
2017-12-05T07:59:33.239Z,14.67
2017-12-05T08:04:17.423Z,13.53
2017-12-05T08:09:01.477Z,10.87
2017-12-05T08:13:45.580Z,16.17
2017-12-05T08:18:29.767Z,14.07
2017-12-05T08:23:14.177Z,15.17
2017-12-05T08:27:58.447Z,16.50
2017-12-05T08:32:42.550Z,17.37
2017-12-05T08:37:26.638Z,17.10
2017-12-05T08:42:10.754Z,14.73
2017-12-05T08:46:55.603Z,12.27
2017-12-05T08:51:40.301Z,10.87
2017-12-05T08:56:25.363Z,12.50
2017-12-05T09:01:09.422Z,13.70
2017-12-05T09:05:53.549Z,14.37
2017-12-05T09:10:37.665Z,12.90
2017-12-05T09:15:21.765Z,11.10
2017-12-05T09:20:05.958Z,13.83
2017-12-05T09:24:51.028Z,15.20
2017-12-05T09:29:35.059Z,12.80
2017-12-05T09:34:19.121Z,12.63
2017-12-05T09:39:03.393Z,12.43
2017-12-05T09:43:47.407Z,18.77
2017-12-05T09:48:31.450Z,12.57
2017-12-05T09:53:15.447Z,17.63
2017-12-05T09:58:00.269Z,18.50
2017-12-05T10:02:44.369Z,15.67
2017-12-05T10:07:28.459Z,22.07
2017-12-05T10:12:13.316Z,19.40
2017-12-05T10:16:57.427Z,16.13
2017-12-05T10:21:41.540Z,17.63
2017-12-05T10:26:26.491Z,20.23
2017-12-05T10:31:10.565Z,20.07
2017-12-05T10:35:55.874Z,20.03
2017-12-05T10:40:39.936Z,16.33
2017-12-05T10:45:24.004Z,21.37
2017-12-05T10:50:08.036Z,18.50
2017-12-05T10:54:52.144Z,15.80
2017-12-05T10:59:36.222Z,17.83
2017-12-05T11:04:20.229Z,20.30
2017-12-05T11:09:05.210Z,19.10
2017-12-05T11:13:50.764Z,17.20
2017-12-05T11:18:35.775Z,18.03
2017-12-05T11:23:19.878Z,14.90
2017-12-05T11:28:04.952Z,14.70
2017-12-05T11:32:48.960Z,15.67
2017-12-05T11:37:33.033Z,13.20
2017-12-05T11:42:17.064Z,12.90
2017-12-05T11:47:01.103Z,14.77
2017-12-05T11:51:45.814Z,13.67
2017-12-05T11:56:29.911Z,12.67
2017-12-05T12:01:20.832Z,15.77
2017-12-05T12:06:05.095Z,13.90
2017-12-05T12:10:49.170Z,13.13
2017-12-05T12:15:33.260Z,18.73
2017-12-05T12:20:17.302Z,12.67
2017-12-05T12:25:02.147Z,12.87
2017-12-05T12:29:46.263Z,13.90
2017-12-05T12:34:30.367Z,13.90
2017-12-05T12:39:14.457Z,14.20
2017-12-05T12:43:58.570Z,17.43
2017-12-05T12:48:42.678Z,17.10
2017-12-05T12:53:27.434Z,17.63
2017-12-05T12:58:11.541Z,16.53
2017-12-05T13:02:55.726Z,17.57
2017-12-05T13:07:39.866Z,19.87
2017-12-05T13:12:24.775Z,20.57
2017-12-05T13:17:09.112Z,18.13
2017-12-05T13:21:53.287Z,18.67
2017-12-05T13:26:37.913Z,19.83
2017-12-05T13:31:22.088Z,20.10
2017-12-05T13:36:07.169Z,18.10
2017-12-05T13:40:51.975Z,20.90
2017-12-05T13:45:36.144Z,16.60
2017-12-05T13:50:20.407Z,18.83
2017-12-05T13:55:04.648Z,18.83
2017-12-05T13:59:48.764Z,18.50
2017-12-05T14:04:32.873Z,17.70
2017-12-05T14:09:17.348Z,16.63
2017-12-05T14:14:02.309Z,13.20
2017-12-05T14:18:46.463Z,15.50
2017-12-05T14:23:30.595Z,14.03
2017-12-05T14:28:14.648Z,18.13
2017-12-05T14:32:58.722Z,15.10
2017-12-05T14:37:42.866Z,14.53
2017-12-05T14:42:26.932Z,20.27
2017-12-05T14:47:12.884Z,17.70
2017-12-05T14:51:58.133Z,18.67
2017-12-05T14:56:42.451Z,21.97
2017-12-05T15:01:34.144Z,16.70
2017-12-05T15:06:18.159Z,19.27
2017-12-05T15:11:02.408Z,16.47
2017-12-05T15:15:46.494Z,17.27
2017-12-05T15:20:30.696Z,15.70
2017-12-05T15:25:14.803Z,16.80
2017-12-05T15:29:59.009Z,18.47
2017-12-05T15:34:43.130Z,15.10
2017-12-05T15:39:28.021Z,14.97
2017-12-05T15:44:14.269Z,17.43
2017-12-05T15:49:04.268Z,20.03
2017-12-05T15:53:48.334Z,19.33
2017-12-05T15:58:32.378Z,21.53
2017-12-05T16:03:16.996Z,23.30
2017-12-05T16:08:01.342Z,21.87
2017-12-05T16:12:46.715Z,22.20
2017-12-05T16:17:30.783Z,21.63
2017-12-05T16:22:14.799Z,14.57
2017-12-05T16:26:59.073Z,17.53
2017-12-05T16:31:43.611Z,19.70
2017-12-05T16:36:27.840Z,16.17
2017-12-05T16:41:11.988Z,19.63
2017-12-05T16:45:56.276Z,19.30
2017-12-05T16:50:40.548Z,17.80
2017-12-05T16:55:24.962Z,16.93
2017-12-05T17:00:09.505Z,16.53
2017-12-05T17:04:54.432Z,17.97
2017-12-05T17:09:38.705Z,15.43
2017-12-05T17:14:23.077Z,17.23
2017-12-05T17:19:07.306Z,18.90
2017-12-05T17:23:51.515Z,18.50
2017-12-05T17:28:35.741Z,18.23
2017-12-05T17:33:19.940Z,17.30
2017-12-05T17:38:06.226Z,20.07
2017-12-05T17:42:51.720Z,17.20
2017-12-05T17:47:36.865Z,19.90
2017-12-05T17:52:21.776Z,17.13
2017-12-05T17:57:05.955Z,18.20
2017-12-05T18:01:50.126Z,16.07
2017-12-05T18:06:34.896Z,17.03
2017-12-05T18:11:19.803Z,17.23
2017-12-05T18:16:04.186Z,15.75
2017-12-05T18:20:48.336Z,15.33
2017-12-05T18:25:33.371Z,13.40
2017-12-05T18:30:17.460Z,14.37
2017-12-05T18:35:01.579Z,14.67
2017-12-05T18:39:45.828Z,13.77
2017-12-05T18:44:29.880Z,15.47
2017-12-05T18:49:14.435Z,15.60
2017-12-05T18:53:58.717Z,13.03
2017-12-05T18:58:42.866Z,14.80
2017-12-05T19:03:27.034Z,15.97
2017-12-05T19:08:11.236Z,15.80
2017-12-05T19:12:55.420Z,13.57
2017-12-05T19:17:40.131Z,14.47
2017-12-05T19:22:24.456Z,14.90
2017-12-05T19:27:08.779Z,16.17
2017-12-05T19:31:53.004Z,17.27
2017-12-05T19:36:37.223Z,16.30
2017-12-05T19:41:21.376Z,16.80
2017-12-05T19:46:05.576Z,15.73
2017-12-05T19:50:51.278Z,17.10
2017-12-05T19:55:35.536Z,17.33
2017-12-05T20:00:19.814Z,17.23
2017-12-05T20:05:04.142Z,17.20
2017-12-05T20:09:48.300Z,16.47
2017-12-05T20:14:32.524Z,16.70
2017-12-05T20:19:16.710Z,17.43
2017-12-05T20:24:02.653Z,19.93
2017-12-05T20:28:47.265Z,21.17
2017-12-05T20:33:31.497Z,23.47
2017-12-05T20:38:15.682Z,18.57
2017-12-05T20:43:00.884Z,18.03
2017-12-05T20:47:45.180Z,16.53
2017-12-05T20:52:29.109Z,19.37
2017-12-05T20:57:13.058Z,17.70
2017-12-05T21:01:56.966Z,19.13
2017-12-05T21:06:41.159Z,19.53
2017-12-05T21:11:25.064Z,16.80
2017-12-05T21:16:09.018Z,19.07
2017-12-05T21:20:53.032Z,19.13
2017-12-05T21:25:37.016Z,17.10
2017-12-05T21:30:20.976Z,15.13
2017-12-05T21:35:04.879Z,16.70
2017-12-05T21:39:49.247Z,18.17
2017-12-05T21:44:33.174Z,16.60
2017-12-05T21:49:17.091Z,16.33
2017-12-05T21:54:01.469Z,17.13
2017-12-05T21:58:45.463Z,16.47
2017-12-05T22:03:29.351Z,16.30
2017-12-05T22:08:13.388Z,15.63
2017-12-05T22:12:57.488Z,15.93
2017-12-05T22:17:41.590Z,17.70
2017-12-05T22:22:26.006Z,15.53
2017-12-05T22:27:10.151Z,16.63
2017-12-05T22:31:54.281Z,15.67
2017-12-05T22:36:38.392Z,18.80
2017-12-05T22:41:22.448Z,15.13
2017-12-05T22:46:06.591Z,14.87
2017-12-05T22:50:50.789Z,19.43
2017-12-05T22:55:34.870Z,15.60
2017-12-05T23:00:19.752Z,14.67
2017-12-05T23:05:04.818Z,17.00
2017-12-05T23:09:49.033Z,16.80
2017-12-05T23:14:35.082Z,16.30
2017-12-05T23:19:19.252Z,14.63
2017-12-05T23:24:03.597Z,17.23
2017-12-05T23:28:47.693Z,14.80
2017-12-05T23:33:31.837Z,15.30
2017-12-05T23:38:22.588Z,15.53
2017-12-05T23:43:07.500Z,16.77
2017-12-05T23:47:51.600Z,13.40
2017-12-05T23:52:35.696Z,15.53
2017-12-05T23:57:20.595Z,14.43
